createdAt,value
2023-01-29T00:00:16.896Z,21.95
2023-01-29T00:01:19.216Z,14.80
2023-01-29T00:02:21.428Z,18.23
2023-01-29T00:03:23.267Z,13.23
2023-01-29T00:04:25.455Z,14.82
2023-01-29T00:05:28.454Z,16.08
2023-01-29T00:06:30.794Z,17.83
2023-01-29T00:07:33.591Z,14.90
2023-01-29T00:08:36.767Z,14.98
2023-01-29T00:09:38.650Z,17.93
2023-01-29T00:10:40.817Z,17.77
2023-01-29T00:11:42.693Z,14.50
2023-01-29T00:12:44.637Z,16.55
2023-01-29T00:13:46.786Z,16.88
2023-01-29T00:14:48.844Z,16.02
2023-01-29T00:15:58.159Z,17.65
2023-01-29T00:17:00.064Z,13.48
2023-01-29T00:18:01.956Z,17.42
2023-01-29T00:19:04.528Z,26.05
2023-01-29T00:20:06.839Z,22.40
2023-01-29T00:21:13.210Z,13.35
2023-01-29T00:22:15.083Z,16.90
2023-01-29T00:23:17.148Z,15.63
2023-01-29T00:24:19.254Z,16.98
2023-01-29T00:25:21.136Z,14.98
2023-01-29T00:26:23.269Z,15.38
2023-01-29T00:27:25.306Z,13.35
2023-01-29T00:28:27.149Z,15.13
2023-01-29T00:29:28.966Z,14.20
2023-01-29T00:30:30.860Z,16.03
2023-01-29T00:31:32.817Z,13.95
2023-01-29T00:32:35.012Z,23.13
2023-01-29T00:33:37.331Z,16.48
2023-01-29T00:34:39.104Z,16.35
2023-01-29T00:35:41.475Z,19.85
2023-01-29T00:36:43.214Z,17.98
2023-01-29T00:37:45.109Z,15.57
2023-01-29T00:38:47.849Z,18.15
2023-01-29T00:39:49.739Z,16.35
2023-01-29T00:40:51.616Z,18.00
2023-01-29T00:41:53.383Z,14.00
2023-01-29T00:42:55.252Z,16.02
2023-01-29T00:43:57.681Z,14.23
2023-01-29T00:44:59.653Z,15.10
2023-01-29T00:46:01.663Z,16.88
2023-01-29T00:47:04.989Z,14.82
2023-01-29T00:48:07.321Z,17.20
2023-01-29T00:49:09.980Z,15.52
2023-01-29T00:50:12.485Z,13.93
2023-01-29T00:51:14.273Z,16.93
2023-01-29T00:52:16.165Z,18.08
2023-01-29T00:53:18.090Z,14.13
2023-01-29T00:54:19.931Z,17.02
2023-01-29T00:55:22.282Z,13.18
2023-01-29T00:56:29.096Z,14.38
2023-01-29T00:57:34.051Z,15.35
2023-01-29T00:58:35.916Z,15.15
2023-01-29T00:59:37.997Z,13.68
2023-01-29T01:00:39.940Z,13.05
2023-01-29T01:01:41.820Z,15.63
2023-01-29T01:02:43.876Z,16.73
2023-01-29T01:03:45.711Z,16.30
2023-01-29T01:04:47.512Z,11.90
2023-01-29T01:05:49.416Z,13.82
2023-01-29T01:06:51.383Z,14.18
2023-01-29T01:07:56.097Z,14.40
2023-01-29T01:08:57.973Z,12.35
2023-01-29T01:09:59.881Z,13.80
2023-01-29T01:11:04.612Z,14.18
2023-01-29T01:12:06.709Z,14.33
2023-01-29T01:13:08.628Z,14.98
2023-01-29T01:14:10.516Z,13.48
2023-01-29T01:15:12.855Z,12.52
2023-01-29T01:16:17.765Z,9.38
2023-01-29T01:17:19.574Z,14.82
2023-01-29T01:18:21.454Z,14.73
2023-01-29T01:19:23.286Z,15.68
2023-01-29T01:20:27.142Z,16.38
2023-01-29T01:21:28.969Z,16.02
2023-01-29T01:22:30.791Z,19.40
2023-01-29T01:23:32.700Z,15.70
2023-01-29T01:24:34.465Z,15.68
2023-01-29T01:25:36.334Z,15.15
2023-01-29T01:26:38.612Z,16.10
2023-01-29T01:27:40.426Z,15.32
2023-01-29T01:28:42.246Z,13.70
2023-01-29T01:29:44.220Z,11.95
2023-01-29T01:30:46.180Z,15.13
2023-01-29T01:31:48.112Z,12.35
2023-01-29T01:32:50.316Z,13.33
2023-01-29T01:33:52.187Z,16.90
2023-01-29T01:34:54.107Z,14.38
2023-01-29T01:35:55.873Z,12.23
2023-01-29T01:36:57.811Z,16.38
2023-01-29T01:38:00.117Z,10.10
2023-01-29T01:39:01.949Z,11.60
2023-01-29T01:40:06.083Z,11.55
2023-01-29T01:41:07.841Z,14.52
2023-01-29T01:42:13.654Z,13.32
2023-01-29T01:43:15.500Z,14.37
2023-01-29T01:44:51.988Z,10.50
2023-01-29T01:45:53.884Z,14.93
2023-01-29T01:46:55.852Z,14.32
2023-01-29T01:48:05.587Z,12.68
2023-01-29T01:49:19.663Z,12.45
2023-01-29T01:50:30.477Z,10.98
2023-01-29T01:51:34.447Z,10.95
2023-01-29T01:52:40.813Z,14.30
2023-01-29T01:53:54.753Z,12.88
2023-01-29T01:54:57.868Z,12.37
2023-01-29T01:56:03.842Z,17.65
2023-01-29T01:57:11.557Z,9.40
2023-01-29T01:58:24.676Z,12.10
2023-01-29T01:59:26.735Z,13.93
2023-01-29T02:00:28.827Z,14.18
2023-01-29T02:01:30.705Z,12.73
2023-01-29T02:02:32.648Z,13.80
2023-01-29T02:03:58.952Z,14.93
2023-01-29T02:05:00.837Z,10.40
2023-01-29T02:06:02.800Z,12.70
2023-01-29T02:07:07.644Z,15.10
2023-01-29T02:08:10.732Z,11.88
2023-01-29T02:09:20.571Z,12.85
2023-01-29T02:10:22.779Z,13.77
2023-01-29T02:11:25.331Z,11.02
2023-01-29T02:12:27.756Z,13.57
2023-01-29T02:13:29.704Z,12.85
2023-01-29T02:14:32.026Z,12.00
2023-01-29T02:15:34.289Z,12.23
2023-01-29T02:16:36.938Z,14.10
2023-01-29T02:17:39.273Z,11.32
2023-01-29T02:18:41.129Z,15.65
2023-01-29T02:20:04.009Z,10.65
2023-01-29T02:21:40.890Z,12.23
2023-01-29T02:23:16.001Z,12.75
2023-01-29T02:24:33.192Z,12.48
2023-01-29T02:25:40.998Z,10.73
2023-01-29T02:27:20.245Z,10.27
2023-01-29T02:28:40.083Z,12.75
2023-01-29T02:29:58.888Z,15.87
2023-01-29T02:31:21.821Z,19.38
2023-01-29T02:32:51.653Z,13.75
2023-01-29T02:34:03.792Z,13.15
2023-01-29T02:35:26.002Z,9.80
2023-01-29T02:36:33.673Z,11.45
2023-01-29T02:37:55.787Z,11.23
2023-01-29T02:39:14.888Z,12.15
2023-01-29T02:40:49.880Z,13.82
2023-01-29T02:42:15.542Z,10.43
2023-01-29T02:43:26.521Z,10.23
2023-01-29T02:44:38.745Z,10.70
2023-01-29T02:46:17.733Z,11.73
2023-01-29T02:47:22.695Z,11.25
2023-01-29T02:48:27.778Z,12.40
2023-01-29T02:49:44.252Z,12.48
2023-01-29T02:50:58.692Z,11.23
2023-01-29T02:52:09.169Z,13.25
2023-01-29T02:53:22.041Z,11.77
2023-01-29T02:54:52.818Z,12.43
2023-01-29T02:56:03.392Z,10.63
2023-01-29T02:57:28.854Z,9.90
2023-01-29T03:00:38.369Z,10.40
2023-01-29T03:01:49.252Z,9.77
2023-01-29T03:02:57.970Z,8.93
2023-01-29T03:04:07.060Z,10.63
2023-01-29T03:05:14.892Z,11.43
2023-01-29T03:06:27.053Z,13.00
2023-01-29T03:07:38.629Z,10.00
2023-01-29T03:08:44.205Z,10.23
2023-01-29T03:09:51.642Z,11.05
2023-01-29T03:11:01.423Z,13.13
2023-01-29T03:12:10.656Z,13.32
2023-01-29T03:13:30.412Z,17.90
2023-01-29T03:14:38.236Z,13.13
2023-01-29T03:15:52.417Z,10.45
2023-01-29T03:16:54.268Z,10.80
2023-01-29T03:18:02.423Z,10.23
2023-01-29T03:19:20.993Z,10.05
2023-01-29T03:20:33.425Z,7.80
2023-01-29T03:21:40.934Z,7.82
2023-01-29T03:22:48.148Z,11.43
2023-01-29T03:23:50.089Z,11.65
2023-01-29T03:24:57.574Z,9.88
2023-01-29T03:25:59.819Z,8.05
2023-01-29T03:27:06.035Z,8.43
2023-01-29T03:28:10.143Z,8.40
2023-01-29T03:29:12.889Z,8.35
2023-01-29T03:30:18.292Z,8.32
2023-01-29T03:31:20.712Z,7.03
2023-01-29T03:32:24.455Z,8.27
2023-01-29T03:33:28.482Z,8.57
2023-01-29T03:34:34.969Z,12.50
2023-01-29T03:35:43.220Z,11.52
2023-01-29T03:36:54.745Z,10.13
2023-01-29T03:37:56.455Z,8.60
2023-01-29T03:38:58.164Z,7.63
2023-01-29T03:40:00.047Z,8.25
2023-01-29T03:41:20.968Z,7.55
2023-01-29T03:42:33.680Z,8.70
2023-01-29T03:43:48.108Z,8.35
2023-01-29T03:45:21.616Z,9.52
2023-01-29T03:46:57.515Z,9.55
2023-01-29T03:48:24.924Z,11.20
2023-01-29T03:49:48.140Z,8.15
2023-01-29T03:51:08.399Z,6.95
2023-01-29T03:52:22.274Z,8.13
2023-01-29T03:53:39.102Z,9.07
2023-01-29T03:55:04.626Z,9.85
2023-01-29T03:56:35.391Z,9.80
2023-01-29T03:58:13.160Z,6.97
2023-01-29T03:59:19.168Z,8.95
2023-01-29T04:00:26.763Z,9.05
2023-01-29T04:01:44.547Z,10.10
2023-01-29T04:02:55.797Z,9.95
2023-01-29T04:04:09.242Z,8.02
2023-01-29T04:05:22.882Z,10.23
2023-01-29T04:06:30.171Z,11.02
2023-01-29T04:07:33.251Z,9.07
2023-01-29T04:08:54.600Z,9.80
2023-01-29T04:10:12.247Z,6.13
2023-01-29T04:11:18.599Z,7.10
2023-01-29T04:12:29.907Z,7.38
2023-01-29T04:13:32.372Z,11.27
2023-01-29T04:14:34.481Z,8.52
2023-01-29T04:15:45.336Z,10.48
2023-01-29T04:16:51.588Z,9.85
2023-01-29T04:17:55.836Z,8.73
2023-01-29T04:18:57.940Z,10.07
2023-01-29T04:20:01.545Z,9.67
2023-01-29T04:21:05.072Z,9.30
2023-01-29T04:22:20.912Z,9.38
2023-01-29T04:23:25.767Z,7.30
2023-01-29T04:24:27.737Z,11.98
2023-01-29T04:25:36.161Z,9.52
2023-01-29T04:27:07.662Z,10.18
2023-01-29T04:28:24.468Z,11.75
2023-01-29T04:29:59.168Z,12.02
2023-01-29T04:31:06.939Z,10.40
2023-01-29T04:32:19.742Z,11.57
2023-01-29T04:33:53.599Z,8.07
2023-01-29T04:35:34.102Z,9.68
2023-01-29T04:36:45.054Z,10.70
2023-01-29T04:37:52.691Z,8.43
2023-01-29T04:39:00.415Z,8.60
2023-01-29T04:40:25.306Z,9.63
2023-01-29T04:41:55.429Z,8.07
2023-01-29T04:43:06.693Z,9.57
2023-01-29T04:44:21.385Z,9.30
2023-01-29T04:45:47.401Z,9.53
2023-01-29T04:47:02.568Z,9.13
2023-01-29T04:48:30.975Z,11.07
2023-01-29T04:49:44.838Z,8.80
2023-01-29T04:51:11.115Z,11.00
2023-01-29T04:52:23.232Z,9.73
2023-01-29T04:53:40.708Z,9.98
2023-01-29T04:54:51.214Z,10.18
2023-01-29T04:56:07.235Z,11.35
2023-01-29T04:57:20.285Z,7.32
2023-01-29T04:58:33.228Z,12.67
2023-01-29T04:59:45.913Z,10.02
2023-01-29T05:00:50.166Z,9.55
2023-01-29T05:01:53.045Z,11.93
2023-01-29T05:02:56.192Z,9.93
2023-01-29T05:04:02.404Z,9.15
2023-01-29T05:05:05.484Z,9.07
2023-01-29T05:06:10.145Z,9.73
2023-01-29T05:07:15.313Z,10.75
2023-01-29T05:08:23.059Z,11.90
2023-01-29T05:09:26.077Z,12.03
2023-01-29T05:10:28.796Z,9.90
2023-01-29T05:11:35.794Z,9.52
2023-01-29T05:12:38.758Z,10.90
2023-01-29T05:13:43.088Z,7.72
2023-01-29T05:14:47.509Z,9.43
2023-01-29T05:15:55.118Z,10.32
2023-01-29T05:16:58.757Z,9.45
2023-01-29T05:18:00.539Z,8.52
2023-01-29T05:19:02.262Z,11.73
2023-01-29T05:20:04.480Z,9.33
2023-01-29T05:21:08.437Z,9.82
2023-01-29T05:22:12.999Z,10.80
2023-01-29T05:23:19.810Z,10.10
2023-01-29T05:24:27.553Z,9.15
2023-01-29T05:25:31.362Z,7.85
2023-01-29T05:26:34.801Z,11.77
2023-01-29T05:27:37.218Z,9.02
2023-01-29T05:28:39.032Z,8.93
2023-01-29T05:29:46.943Z,10.45
2023-01-29T05:30:51.534Z,9.37
2023-01-29T05:31:53.423Z,9.93
2023-01-29T05:32:55.155Z,9.68
2023-01-29T05:33:56.934Z,10.68
2023-01-29T05:34:58.821Z,14.32
2023-01-29T05:36:00.565Z,11.82
2023-01-29T05:37:02.809Z,18.65
2023-01-29T05:38:04.478Z,17.13
2023-01-29T05:39:06.230Z,14.43
2023-01-29T05:40:09.013Z,18.65
2023-01-29T05:41:10.787Z,18.37
2023-01-29T05:42:12.521Z,36.67
2023-01-29T05:43:22.886Z,61.17
2023-01-29T05:44:24.810Z,57.80
2023-01-29T05:45:26.521Z,68.30
2023-01-29T05:46:28.286Z,50.40
2023-01-29T05:47:30.115Z,27.77
2023-01-29T05:48:31.856Z,79.70
2023-01-29T05:49:33.727Z,45.60
2023-01-29T05:50:35.912Z,47.28
2023-01-29T05:51:37.749Z,94.77
2023-01-29T05:52:39.924Z,55.17
2023-01-29T05:53:41.622Z,49.17
2023-01-29T05:54:43.334Z,53.97
2023-01-29T05:55:46.061Z,51.08
2023-01-29T05:56:48.044Z,25.65
2023-01-29T05:57:49.807Z,23.80
2023-01-29T05:58:51.650Z,18.75
2023-01-29T05:59:53.443Z,21.73
2023-01-29T06:00:55.215Z,21.15
2023-01-29T06:01:57.810Z,23.50
2023-01-29T06:02:59.562Z,18.65
2023-01-29T06:04:01.346Z,14.30
2023-01-29T06:05:03.165Z,16.88
2023-01-29T06:06:05.075Z,14.13
2023-01-29T06:07:06.928Z,14.63
2023-01-29T06:08:09.233Z,12.07
2023-01-29T06:09:11.692Z,10.77
2023-01-29T06:10:16.253Z,12.30
2023-01-29T06:11:18.293Z,11.95
2023-01-29T06:12:20.067Z,10.37
2023-01-29T06:13:23.636Z,15.02
2023-01-29T06:14:25.691Z,14.10
2023-01-29T06:15:27.451Z,13.80
2023-01-29T06:16:29.251Z,11.30
2023-01-29T06:17:31.107Z,10.75
2023-01-29T06:18:33.021Z,12.45
2023-01-29T06:19:34.767Z,12.55
2023-01-29T06:20:37.477Z,12.00
2023-01-29T06:21:39.479Z,11.20
2023-01-29T06:22:41.300Z,12.13
2023-01-29T06:23:43.042Z,12.32
2023-01-29T06:24:44.910Z,13.38
2023-01-29T06:25:46.579Z,13.32
2023-01-29T06:26:48.278Z,11.10
2023-01-29T06:27:53.071Z,11.80
2023-01-29T06:28:54.886Z,13.82
2023-01-29T06:29:56.519Z,10.77
2023-01-29T06:31:08.287Z,13.27
2023-01-29T06:32:18.393Z,12.23
2023-01-29T06:33:20.172Z,13.07
2023-01-29T06:34:21.874Z,13.55
2023-01-29T06:35:23.599Z,13.15
2023-01-29T06:36:25.313Z,10.60
2023-01-29T06:37:27.052Z,11.68
2023-01-29T06:38:29.270Z,12.10
2023-01-29T06:39:30.982Z,15.20
2023-01-29T06:40:32.822Z,13.25
2023-01-29T06:41:35.222Z,13.18
2023-01-29T06:42:37.024Z,15.20
2023-01-29T06:43:39.733Z,12.03
2023-01-29T06:44:41.396Z,12.10
2023-01-29T06:45:54.471Z,15.48
2023-01-29T06:46:56.353Z,12.60
2023-01-29T06:48:00.485Z,11.82
2023-01-29T06:49:03.121Z,12.40
2023-01-29T06:50:05.579Z,14.45
2023-01-29T06:51:09.312Z,13.45
2023-01-29T06:52:11.058Z,14.60
2023-01-29T06:53:13.510Z,14.15
2023-01-29T06:54:15.173Z,11.13
2023-01-29T06:55:16.973Z,10.85
2023-01-29T06:56:18.738Z,12.32
2023-01-29T06:57:20.718Z,14.45
2023-01-29T06:58:22.713Z,13.75
2023-01-29T06:59:24.434Z,13.65
2023-01-29T07:00:26.068Z,15.80
2023-01-29T07:01:36.071Z,14.95
2023-01-29T07:02:38.039Z,12.25
2023-01-29T07:03:40.078Z,13.05
2023-01-29T07:04:41.765Z,12.30
2023-01-29T07:05:43.603Z,16.05
2023-01-29T07:06:45.509Z,11.88
2023-01-29T07:07:47.297Z,12.40
2023-01-29T07:08:49.101Z,13.95
2023-01-29T07:09:50.790Z,18.35
2023-01-29T07:10:52.477Z,23.90
2023-01-29T07:11:54.343Z,19.80
2023-01-29T07:12:56.047Z,15.20
2023-01-29T07:13:59.953Z,13.98
2023-01-29T07:15:01.683Z,12.80
2023-01-29T07:16:04.957Z,15.55
2023-01-29T07:17:06.960Z,19.35
2023-01-29T07:18:09.618Z,25.33
2023-01-29T07:19:11.437Z,23.25
2023-01-29T07:20:13.202Z,17.45
2023-01-29T07:21:14.978Z,15.13
2023-01-29T07:22:16.668Z,16.77
2023-01-29T07:23:18.447Z,17.13
2023-01-29T07:24:20.328Z,14.65
2023-01-29T07:25:22.187Z,14.27
2023-01-29T07:26:24.398Z,15.07
2023-01-29T07:27:26.092Z,15.38
2023-01-29T07:28:27.783Z,14.10
2023-01-29T07:29:29.468Z,12.68
2023-01-29T07:30:31.350Z,12.73
2023-01-29T07:31:33.340Z,13.23
2023-01-29T07:32:35.115Z,11.57
2023-01-29T07:33:36.907Z,13.63
2023-01-29T07:34:38.648Z,12.77
2023-01-29T07:35:42.883Z,16.33
2023-01-29T07:36:44.565Z,12.00
2023-01-29T07:37:49.708Z,15.05
2023-01-29T07:38:51.820Z,14.13
2023-01-29T07:39:53.673Z,13.95
2023-01-29T07:40:55.427Z,16.33
2023-01-29T07:41:57.155Z,15.52
2023-01-29T07:43:04.083Z,15.07
2023-01-29T07:44:05.788Z,13.07
2023-01-29T07:45:08.198Z,12.25
2023-01-29T07:46:09.997Z,11.67
2023-01-29T07:47:12.258Z,12.52
2023-01-29T07:48:13.985Z,13.50
2023-01-29T07:49:16.415Z,11.93
2023-01-29T07:50:18.432Z,16.17
2023-01-29T07:51:20.621Z,12.07
2023-01-29T07:52:22.558Z,12.65
2023-01-29T07:53:24.684Z,11.77
2023-01-29T07:54:26.552Z,14.70
2023-01-29T07:55:28.335Z,11.35
2023-01-29T07:56:30.162Z,11.10
2023-01-29T07:57:32.012Z,11.15
2023-01-29T07:58:35.754Z,13.18
2023-01-29T07:59:38.407Z,12.65
2023-01-29T08:00:40.343Z,15.43
2023-01-29T08:01:42.058Z,13.43
2023-01-29T08:02:43.997Z,13.70
2023-01-29T08:03:45.684Z,14.23
2023-01-29T08:04:47.452Z,11.68
2023-01-29T08:05:49.285Z,15.13
2023-01-29T08:06:51.104Z,10.70
2023-01-29T08:08:05.673Z,14.23
2023-01-29T08:09:08.767Z,13.63
2023-01-29T08:10:11.375Z,14.73
2023-01-29T08:11:13.167Z,11.60
2023-01-29T08:12:14.987Z,12.75
2023-01-29T08:13:16.852Z,15.55
2023-01-29T08:14:18.648Z,12.70
2023-01-29T08:15:20.369Z,13.73
2023-01-29T08:16:22.303Z,12.23
2023-01-29T08:17:24.221Z,15.47
2023-01-29T08:18:26.017Z,13.00
2023-01-29T08:19:27.754Z,12.60
2023-01-29T08:20:29.749Z,12.05
2023-01-29T08:21:31.507Z,13.23
2023-01-29T08:22:33.545Z,11.40
2023-01-29T08:23:35.213Z,11.38
2023-01-29T08:24:47.919Z,12.60
2023-01-29T08:25:58.606Z,13.23
2023-01-29T08:27:00.540Z,13.80
2023-01-29T08:28:02.485Z,15.83
2023-01-29T08:29:04.353Z,15.82
2023-01-29T08:30:07.224Z,20.27
2023-01-29T08:31:16.639Z,19.52
2023-01-29T08:32:18.475Z,12.48
2023-01-29T08:33:29.801Z,12.35
2023-01-29T08:34:35.637Z,25.20
2023-01-29T08:35:37.840Z,12.93
2023-01-29T08:36:39.678Z,13.18
2023-01-29T08:37:41.431Z,15.05
2023-01-29T08:38:43.078Z,13.90
2023-01-29T08:39:44.802Z,12.05
2023-01-29T08:40:46.794Z,14.18
2023-01-29T08:41:48.454Z,14.48
2023-01-29T08:42:50.521Z,12.70
2023-01-29T08:43:52.180Z,13.32
2023-01-29T08:44:53.818Z,13.07
2023-01-29T08:45:55.583Z,13.88
2023-01-29T08:46:57.897Z,14.27
2023-01-29T08:47:59.741Z,17.35
2023-01-29T08:49:01.432Z,16.67
2023-01-29T08:50:03.459Z,16.50
2023-01-29T08:51:05.638Z,14.60
2023-01-29T08:52:07.355Z,11.10
2023-01-29T08:53:09.795Z,14.45
2023-01-29T08:54:11.660Z,11.73
2023-01-29T08:55:14.146Z,11.98
2023-01-29T08:56:15.951Z,13.43
2023-01-29T08:57:17.649Z,16.98
2023-01-29T08:58:19.645Z,15.57
2023-01-29T08:59:21.411Z,16.97
2023-01-29T09:00:23.154Z,16.70
2023-01-29T09:01:24.979Z,12.57
2023-01-29T09:02:26.730Z,13.13
2023-01-29T09:03:28.501Z,13.40
2023-01-29T09:04:30.315Z,17.27
2023-01-29T09:05:32.798Z,19.77
2023-01-29T09:06:34.660Z,14.75
2023-01-29T09:07:36.446Z,16.58
2023-01-29T09:08:38.387Z,14.43
2023-01-29T09:09:40.076Z,15.20
2023-01-29T09:10:41.759Z,20.58
2023-01-29T09:11:43.435Z,18.02
2023-01-29T09:12:45.240Z,13.00
2023-01-29T09:13:46.988Z,19.45
2023-01-29T09:14:48.685Z,18.52
2023-01-29T09:15:50.506Z,17.13
2023-01-29T09:16:52.384Z,16.77
2023-01-29T09:17:54.284Z,17.38
2023-01-29T09:18:56.012Z,16.88
2023-01-29T09:19:57.919Z,16.00
2023-01-29T09:20:59.652Z,17.15
2023-01-29T09:22:01.414Z,18.05
2023-01-29T09:23:08.119Z,15.98
2023-01-29T09:24:10.859Z,16.15
2023-01-29T09:25:13.279Z,19.75
2023-01-29T09:26:14.976Z,20.63
2023-01-29T09:27:16.710Z,22.20
2023-01-29T09:28:18.423Z,22.15
2023-01-29T09:29:20.142Z,24.63
2023-01-29T09:30:21.970Z,29.43
2023-01-29T09:31:23.796Z,22.33
2023-01-29T09:32:51.761Z,16.48
2023-01-29T09:33:47.326Z,19.88
2023-01-29T09:34:49.025Z,20.38
2023-01-29T09:35:50.811Z,22.65
2023-01-29T09:36:52.888Z,18.83
2023-01-29T09:37:54.643Z,19.50
2023-01-29T09:38:56.355Z,24.42
2023-01-29T09:39:58.094Z,22.73
2023-01-29T09:41:29.671Z,22.40
2023-01-29T09:42:44.159Z,18.33
2023-01-29T09:44:06.032Z,17.08
2023-01-29T09:45:15.900Z,18.52
2023-01-29T09:46:40.872Z,15.52
2023-01-29T09:47:42.548Z,17.35
2023-01-29T09:48:46.469Z,18.30
2023-01-29T09:50:13.244Z,20.55
2023-01-29T09:51:40.475Z,17.38
2023-01-29T09:53:19.032Z,14.90
2023-01-29T09:54:30.747Z,19.73
2023-01-29T09:55:39.638Z,18.00
2023-01-29T09:56:45.003Z,16.52
2023-01-29T09:57:47.010Z,24.73
2023-01-29T09:58:48.771Z,23.05
2023-01-29T09:59:50.480Z,24.25
2023-01-29T10:01:05.895Z,18.42
2023-01-29T10:02:21.306Z,23.20
2023-01-29T10:03:28.986Z,14.63
2023-01-29T10:04:49.588Z,18.10
2023-01-29T10:06:15.604Z,19.07
2023-01-29T10:07:35.868Z,18.13
2023-01-29T10:09:05.227Z,19.63
2023-01-29T10:10:12.852Z,15.50
2023-01-29T10:11:26.879Z,19.08
2023-01-29T10:12:47.236Z,17.77
2023-01-29T10:14:24.373Z,17.95
2023-01-29T10:15:55.827Z,14.30
2023-01-29T10:17:16.272Z,14.05
2023-01-29T10:18:41.138Z,17.45
2023-01-29T10:20:01.689Z,20.07
2023-01-29T10:21:03.292Z,21.02
2023-01-29T10:22:04.940Z,17.77
2023-01-29T10:23:24.441Z,18.40
2023-01-29T10:24:47.415Z,19.42
2023-01-29T10:25:49.831Z,20.38
2023-01-29T10:26:52.847Z,14.23
2023-01-29T10:27:58.781Z,19.23
2023-01-29T10:29:05.707Z,17.90
2023-01-29T10:30:19.967Z,18.35
2023-01-29T10:31:32.686Z,19.90
2023-01-29T10:32:37.069Z,20.77
2023-01-29T10:34:01.110Z,15.55
2023-01-29T10:35:05.509Z,16.50
2023-01-29T10:36:21.281Z,21.35
2023-01-29T10:37:28.773Z,18.63
2023-01-29T10:38:50.134Z,17.83
2023-01-29T10:39:52.242Z,17.55
2023-01-29T10:40:59.829Z,18.77
2023-01-29T10:42:22.622Z,22.83
2023-01-29T10:43:47.786Z,15.00
2023-01-29T10:45:01.396Z,14.73
2023-01-29T10:46:20.600Z,18.75
2023-01-29T10:47:37.489Z,20.17
2023-01-29T10:48:55.854Z,17.27
2023-01-29T10:50:17.296Z,22.63
2023-01-29T10:51:40.348Z,16.83
2023-01-29T10:53:11.056Z,28.40
2023-01-29T10:54:24.267Z,17.90
2023-01-29T10:55:40.839Z,16.63
2023-01-29T10:57:05.460Z,17.43
2023-01-29T10:58:28.443Z,19.73
2023-01-29T10:59:50.056Z,16.13
2023-01-29T11:00:52.524Z,18.60
2023-01-29T11:02:03.169Z,17.27
2023-01-29T11:03:28.229Z,22.48
2023-01-29T11:04:32.556Z,20.23
2023-01-29T11:05:44.719Z,20.88
2023-01-29T11:06:46.701Z,17.77
2023-01-29T11:07:53.091Z,19.95
2023-01-29T11:08:59.318Z,19.00
2023-01-29T11:10:11.087Z,17.30
2023-01-29T11:11:18.566Z,20.17
2023-01-29T11:12:27.859Z,20.75
2023-01-29T11:13:42.686Z,22.63
2023-01-29T11:14:49.133Z,18.15
2023-01-29T11:15:53.232Z,16.80
2023-01-29T11:16:56.319Z,24.08
2023-01-29T11:18:03.594Z,18.70
2023-01-29T11:19:05.415Z,19.10
2023-01-29T11:20:27.549Z,19.20
2023-01-29T11:21:29.916Z,17.85
2023-01-29T11:22:31.680Z,20.75
2023-01-29T11:23:34.370Z,15.23
2023-01-29T11:24:36.419Z,16.80
2023-01-29T11:25:38.308Z,19.33
2023-01-29T11:26:43.012Z,19.27
2023-01-29T11:27:47.721Z,18.95
2023-01-29T11:28:51.167Z,18.33
2023-01-29T11:29:54.150Z,17.67
2023-01-29T11:30:57.457Z,21.47
2023-01-29T11:32:00.787Z,17.92
2023-01-29T11:33:11.372Z,20.98
2023-01-29T11:34:19.628Z,23.38
2023-01-29T11:35:23.813Z,21.20
2023-01-29T11:36:35.892Z,23.02
2023-01-29T11:37:39.415Z,27.83
2023-01-29T11:38:41.192Z,21.27
2023-01-29T11:39:46.765Z,19.80
2023-01-29T11:40:48.797Z,19.00
2023-01-29T11:41:56.342Z,19.17
2023-01-29T11:43:22.218Z,17.35
2023-01-29T11:44:32.682Z,25.50
2023-01-29T11:45:41.797Z,24.23
2023-01-29T11:46:43.658Z,22.25
2023-01-29T11:47:50.029Z,24.70
2023-01-29T11:48:53.595Z,27.13
2023-01-29T11:50:00.191Z,22.73
2023-01-29T11:51:03.521Z,21.60
2023-01-29T11:52:10.394Z,14.60
2023-01-29T11:53:28.225Z,19.33
2023-01-29T11:54:36.618Z,17.35
2023-01-29T11:55:50.208Z,17.73
2023-01-29T11:56:52.959Z,15.23
2023-01-29T11:58:06.929Z,17.52
2023-01-29T11:59:29.011Z,21.98
2023-01-29T12:00:33.712Z,34.28
2023-01-29T12:01:38.840Z,20.80
2023-01-29T12:02:47.442Z,33.45
2023-01-29T12:03:54.051Z,23.92
2023-01-29T12:04:58.771Z,20.83
2023-01-29T12:06:14.526Z,28.27
2023-01-29T12:07:19.198Z,24.45
2023-01-29T12:08:22.612Z,18.80
2023-01-29T12:09:27.428Z,21.77
2023-01-29T12:10:33.402Z,25.45
2023-01-29T12:11:35.923Z,19.27
2023-01-29T12:12:42.746Z,19.70
2023-01-29T12:13:44.568Z,32.42
2023-01-29T12:14:46.331Z,19.92
2023-01-29T12:15:54.726Z,18.17
2023-01-29T12:17:15.479Z,18.73
2023-01-29T12:18:29.420Z,20.15
2023-01-29T12:20:04.429Z,16.70
2023-01-29T12:21:18.321Z,11.18
2023-01-29T12:22:28.017Z,15.88
2023-01-29T12:23:41.247Z,16.67
2023-01-29T12:24:58.074Z,19.35
2023-01-29T12:26:14.527Z,17.88
2023-01-29T12:27:25.309Z,19.65
2023-01-29T12:28:44.938Z,16.80
2023-01-29T12:29:56.568Z,21.60
2023-01-29T12:31:24.150Z,17.58
2023-01-29T12:32:44.104Z,17.10
2023-01-29T12:33:55.416Z,16.63
2023-01-29T12:35:17.885Z,14.38
2023-01-29T12:36:28.323Z,17.23
2023-01-29T12:37:54.970Z,14.48
2023-01-29T12:38:56.765Z,16.33
2023-01-29T12:39:58.527Z,16.10
2023-01-29T12:41:04.928Z,17.87
2023-01-29T12:42:17.685Z,17.73
2023-01-29T12:43:27.702Z,17.58
2023-01-29T12:44:50.531Z,16.02
2023-01-29T12:45:55.199Z,15.68
2023-01-29T12:47:00.751Z,15.57
2023-01-29T12:48:08.414Z,14.95
2023-01-29T12:49:16.449Z,14.55
2023-01-29T12:50:33.636Z,19.48
2023-01-29T12:51:42.989Z,16.60
2023-01-29T12:53:07.665Z,15.27
2023-01-29T12:54:16.727Z,14.80
2023-01-29T12:55:28.329Z,14.15
2023-01-29T12:56:40.880Z,14.40
2023-01-29T12:57:58.863Z,16.40
2023-01-29T12:59:06.693Z,15.23
2023-01-29T13:00:30.710Z,14.82
2023-01-29T13:01:38.628Z,13.20
2023-01-29T13:02:54.526Z,17.15
2023-01-29T13:04:06.773Z,15.52
2023-01-29T13:05:34.849Z,16.23
2023-01-29T13:06:48.075Z,15.52
2023-01-29T13:07:57.659Z,13.57
2023-01-29T13:09:06.208Z,14.95
2023-01-29T13:10:13.830Z,14.02
2023-01-29T13:11:27.257Z,17.30
2023-01-29T13:12:29.531Z,13.77
2023-01-29T13:13:45.033Z,14.13
2023-01-29T13:14:54.256Z,17.17
2023-01-29T13:15:57.451Z,15.25
2023-01-29T13:17:25.071Z,14.03
2023-01-29T13:18:29.696Z,18.90
2023-01-29T13:19:42.709Z,18.60
2023-01-29T13:20:46.518Z,22.60
2023-01-29T13:21:48.719Z,15.63
2023-01-29T13:22:54.757Z,21.65
2023-01-29T13:24:05.187Z,16.33
2023-01-29T13:25:12.434Z,17.48
2023-01-29T13:26:18.569Z,19.02
2023-01-29T13:27:24.743Z,18.80
2023-01-29T13:28:27.557Z,18.70
2023-01-29T13:29:31.276Z,19.25
2023-01-29T13:30:37.203Z,17.85
2023-01-29T13:31:39.580Z,19.08
2023-01-29T13:32:41.719Z,12.63
2023-01-29T13:33:51.506Z,17.15
2023-01-29T13:34:57.265Z,16.58
2023-01-29T13:36:00.146Z,20.08
2023-01-29T13:37:10.247Z,18.65
2023-01-29T13:38:34.251Z,20.38
2023-01-29T13:39:46.428Z,18.23
2023-01-29T13:40:51.575Z,20.52
2023-01-29T13:41:54.799Z,15.70
2023-01-29T13:43:00.202Z,18.35
2023-01-29T13:44:05.393Z,20.10
2023-01-29T13:45:09.153Z,22.02
2023-01-29T13:46:14.915Z,17.58
2023-01-29T13:47:32.136Z,19.77
2023-01-29T13:48:34.283Z,16.17
2023-01-29T13:49:43.365Z,21.25
2023-01-29T13:50:46.622Z,14.43
2023-01-29T13:51:48.426Z,18.95
2023-01-29T13:53:05.134Z,15.73
2023-01-29T13:54:16.449Z,17.13
2023-01-29T13:55:18.316Z,19.15
2023-01-29T13:56:55.634Z,20.80
2023-01-29T13:57:59.635Z,14.88
2023-01-29T13:59:05.620Z,18.02
2023-01-29T14:00:33.313Z,16.00
2023-01-29T14:01:47.205Z,19.80
2023-01-29T14:03:08.862Z,16.57
2023-01-29T14:04:19.685Z,17.02
2023-01-29T14:05:30.595Z,17.02
2023-01-29T14:06:44.894Z,18.25
2023-01-29T14:07:46.583Z,18.20
2023-01-29T14:08:48.247Z,20.92
2023-01-29T14:10:01.398Z,20.17
2023-01-29T14:11:35.949Z,17.33
2023-01-29T14:12:39.205Z,18.92
2023-01-29T14:13:42.918Z,21.02
2023-01-29T14:14:57.007Z,18.80
2023-01-29T14:15:58.650Z,15.70
2023-01-29T14:17:03.656Z,19.63
2023-01-29T14:18:16.319Z,19.85
2023-01-29T14:19:19.382Z,22.55
2023-01-29T14:20:32.312Z,19.20
2023-01-29T14:21:40.734Z,19.92
2023-01-29T14:22:43.554Z,19.45
2023-01-29T14:23:55.033Z,20.15
2023-01-29T14:25:06.782Z,25.30
2023-01-29T14:26:31.079Z,24.37
2023-01-29T14:27:34.652Z,19.83
2023-01-29T14:28:37.103Z,26.63
2023-01-29T14:29:41.812Z,19.33
2023-01-29T14:30:48.200Z,22.58
2023-01-29T14:32:00.959Z,20.35
2023-01-29T14:33:03.413Z,23.73
2023-01-29T14:34:14.154Z,22.63